createdAt,value
2023-04-16T00:01:46.767Z,79.10
2023-04-16T00:04:13.438Z,79.74
2023-04-16T00:06:40.080Z,80.20
2023-04-16T00:09:07.505Z,79.94
2023-04-16T00:11:35.085Z,79.95
2023-04-16T00:14:01.719Z,79.99
2023-04-16T00:16:28.486Z,80.22
2023-04-16T00:18:55.007Z,80.33
2023-04-16T00:21:21.572Z,80.49
2023-04-16T00:23:48.205Z,80.46
2023-04-16T00:26:15.473Z,80.61
2023-04-16T00:28:42.140Z,80.69
2023-04-16T00:31:08.709Z,80.74
2023-04-16T00:33:35.467Z,80.59
2023-04-16T00:36:02.291Z,80.69
2023-04-16T00:38:29.808Z,80.83
2023-04-16T00:40:59.387Z,80.95
2023-04-16T00:43:26.651Z,81.06
2023-04-16T00:45:56.644Z,80.96
2023-04-16T00:48:24.222Z,81.37
2023-04-16T00:50:50.914Z,81.33
2023-04-16T00:53:17.551Z,81.39
2023-04-16T00:55:45.574Z,81.42
2023-04-16T00:58:12.419Z,81.53
2023-04-16T01:00:39.049Z,81.51
2023-04-16T01:03:05.956Z,81.62
2023-04-16T01:05:32.845Z,81.79
2023-04-16T01:08:00.611Z,82.11
2023-04-16T01:10:27.301Z,82.11
2023-04-16T01:12:53.921Z,82.31
2023-04-16T01:15:20.482Z,82.33
2023-04-16T01:17:47.229Z,82.22
2023-04-16T01:20:14.259Z,82.46
2023-04-16T01:22:40.873Z,82.51
2023-04-16T01:25:08.329Z,82.39
2023-04-16T01:27:36.920Z,82.43
2023-04-16T01:30:04.489Z,82.46
2023-04-16T01:32:39.180Z,82.76
2023-04-16T01:35:06.278Z,82.66
2023-04-16T01:37:33.143Z,82.82
2023-04-16T01:39:59.721Z,82.77
2023-04-16T01:42:26.228Z,82.89
2023-04-16T01:44:52.855Z,83.03
2023-04-16T01:47:19.422Z,83.09
2023-04-16T01:49:47.549Z,83.07
2023-04-16T01:52:14.024Z,83.00
2023-04-16T01:54:40.655Z,82.93
2023-04-16T01:57:07.274Z,83.10
2023-04-16T01:59:33.996Z,83.05
2023-04-16T02:02:10.319Z,83.12
2023-04-16T02:04:38.783Z,83.39
2023-04-16T02:07:06.298Z,83.25
2023-04-16T02:09:37.716Z,83.26
2023-04-16T02:12:06.888Z,83.60
2023-04-16T02:14:33.616Z,84.14
2023-04-16T02:17:00.548Z,84.41
2023-04-16T02:19:38.973Z,84.86
2023-04-16T02:22:06.155Z,85.48
2023-04-16T02:24:32.847Z,85.73
2023-04-16T02:27:01.084Z,85.98
2023-04-16T02:29:28.013Z,86.33
2023-04-16T02:32:00.284Z,86.86
2023-04-16T02:34:27.359Z,87.56
2023-04-16T02:36:54.427Z,87.49
2023-04-16T02:39:21.560Z,87.15
2023-04-16T02:41:48.173Z,87.63
2023-04-16T02:44:15.039Z,88.35
2023-04-16T02:46:41.537Z,88.09
2023-04-16T02:49:08.320Z,88.11
2023-04-16T02:51:34.981Z,88.17
2023-04-16T02:54:02.496Z,87.95
2023-04-16T02:56:29.228Z,87.96
2023-04-16T02:58:55.895Z,87.89
2023-04-16T03:01:22.524Z,88.00
2023-04-16T03:03:49.205Z,87.96
2023-04-16T03:06:16.149Z,88.08
2023-04-16T03:08:42.645Z,88.32
2023-04-16T03:11:09.225Z,88.51
2023-04-16T03:13:36.013Z,89.06
2023-04-16T03:16:02.539Z,89.41
2023-04-16T03:18:29.356Z,89.49
2023-04-16T03:20:56.022Z,88.93
2023-04-16T03:23:22.552Z,88.75
2023-04-16T03:25:50.097Z,88.76
2023-04-16T03:28:18.289Z,89.02
2023-04-16T03:30:52.146Z,89.29
2023-04-16T03:33:20.385Z,89.21
2023-04-16T03:35:46.927Z,89.57
2023-04-16T03:38:13.797Z,89.61
2023-04-16T03:40:40.894Z,89.46
2023-04-16T03:43:07.415Z,89.28
2023-04-16T03:45:34.004Z,89.09
2023-04-16T03:48:00.640Z,89.05
2023-04-16T03:50:27.289Z,89.11
2023-04-16T03:52:53.910Z,89.50
2023-04-16T03:55:20.681Z,89.85
2023-04-16T03:57:47.289Z,89.71
2023-04-16T04:00:16.277Z,89.80
2023-04-16T04:03:02.466Z,89.89
2023-04-16T04:05:29.230Z,89.64
2023-04-16T04:07:55.934Z,89.97
2023-04-16T04:10:22.955Z,90.01
2023-04-16T04:12:50.202Z,90.04
2023-04-16T04:15:17.120Z,89.94
2023-04-16T04:17:43.700Z,89.86
2023-04-16T04:20:11.122Z,89.69
2023-04-16T04:22:37.701Z,89.71
2023-04-16T04:25:04.829Z,89.78
2023-04-16T04:27:32.100Z,89.70
2023-04-16T04:29:58.681Z,89.50
2023-04-16T04:32:25.399Z,89.63
2023-04-16T04:34:52.117Z,89.55
2023-04-16T04:37:18.639Z,89.84
2023-04-16T04:39:45.536Z,89.72
2023-04-16T04:42:12.209Z,89.90
2023-04-16T04:44:39.162Z,89.87
2023-04-16T04:47:07.629Z,89.95
2023-04-16T04:49:34.885Z,89.96
2023-04-16T04:52:03.247Z,90.11
2023-04-16T04:54:31.941Z,90.17
2023-04-16T04:56:58.682Z,90.41
2023-04-16T04:59:25.456Z,90.40
2023-04-16T05:01:52.642Z,90.56
2023-04-16T05:04:21.755Z,90.92
2023-04-16T05:06:48.236Z,91.02
2023-04-16T05:09:14.959Z,91.06
2023-04-16T05:11:41.684Z,91.10
2023-04-16T05:14:08.257Z,91.26
2023-04-16T05:16:37.775Z,91.31
2023-04-16T05:19:04.620Z,91.33
2023-04-16T05:21:31.161Z,91.52
2023-04-16T05:23:58.158Z,91.55
2023-04-16T05:26:24.688Z,91.50
2023-04-16T05:28:51.222Z,91.56
2023-04-16T05:31:17.845Z,91.70
2023-04-16T05:33:44.582Z,91.84
2023-04-16T05:36:11.135Z,91.95
2023-04-16T05:38:37.670Z,91.98
2023-04-16T05:41:04.340Z,92.04
2023-04-16T05:43:31.192Z,92.13
2023-04-16T05:45:57.768Z,92.05
2023-04-16T05:48:24.544Z,92.18
2023-04-16T05:50:51.153Z,92.19
2023-04-16T05:53:18.373Z,92.35
2023-04-16T05:55:46.077Z,92.54
2023-04-16T05:58:12.566Z,92.26
2023-04-16T06:00:39.779Z,92.34
2023-04-16T06:03:06.467Z,92.48
2023-04-16T06:05:33.325Z,92.43
2023-04-16T06:07:59.939Z,92.45
2023-04-16T06:10:26.707Z,92.71
2023-04-16T06:12:53.309Z,92.82
2023-04-16T06:15:19.906Z,92.93
2023-04-16T06:17:46.552Z,93.09
2023-04-16T06:20:13.192Z,92.92
2023-04-16T06:22:39.895Z,92.95
2023-04-16T06:25:06.760Z,92.91
2023-04-16T06:27:33.454Z,93.18
2023-04-16T06:30:00.233Z,93.42
2023-04-16T06:32:26.939Z,93.38
2023-04-16T06:34:53.654Z,93.61
2023-04-16T06:37:21.480Z,93.40
2023-04-16T06:39:47.972Z,93.45
2023-04-16T06:42:14.877Z,93.38
2023-04-16T06:44:41.419Z,93.55
2023-04-16T06:47:08.038Z,93.38
2023-04-16T06:49:34.986Z,93.32
2023-04-16T06:52:03.802Z,93.30
2023-04-16T06:54:31.863Z,93.11
2023-04-16T06:56:58.381Z,93.06
2023-04-16T06:59:24.910Z,92.91
2023-04-16T07:01:52.257Z,92.80
2023-04-16T07:04:18.976Z,92.60
2023-04-16T07:06:46.135Z,92.67
2023-04-16T07:09:12.676Z,92.68
2023-04-16T07:11:39.751Z,92.52
2023-04-16T07:14:06.545Z,92.39
2023-04-16T07:16:33.319Z,92.35
2023-04-16T07:18:59.877Z,92.27
2023-04-16T07:21:27.117Z,92.02
2023-04-16T07:23:53.930Z,91.90
2023-04-16T07:26:20.602Z,92.09
2023-04-16T07:28:47.164Z,91.68
2023-04-16T07:31:13.941Z,92.08
2023-04-16T07:33:40.638Z,91.60
2023-04-16T07:36:07.411Z,90.98
2023-04-16T07:38:34.136Z,90.11
2023-04-16T07:41:01.066Z,89.87
2023-04-16T07:43:27.627Z,89.18
2023-04-16T07:45:54.459Z,88.50
2023-04-16T07:48:21.504Z,88.72
2023-04-16T07:50:49.440Z,88.05
2023-04-16T07:53:16.530Z,88.20
2023-04-16T07:55:43.187Z,87.21
2023-04-16T07:58:10.210Z,86.26
2023-04-16T08:00:36.918Z,85.18
2023-04-16T08:03:03.713Z,84.80
2023-04-16T08:05:30.448Z,84.82
2023-04-16T08:07:56.996Z,83.53
2023-04-16T08:10:23.521Z,84.13
2023-04-16T08:12:50.221Z,83.07
2023-04-16T08:15:17.055Z,83.05
2023-04-16T08:17:44.267Z,83.21
2023-04-16T08:20:14.973Z,83.42
2023-04-16T08:22:45.208Z,82.20
2023-04-16T08:25:11.810Z,81.01
2023-04-16T08:27:38.329Z,80.68
2023-04-16T08:30:05.710Z,80.08
2023-04-16T08:32:32.417Z,80.15
2023-04-16T08:34:59.194Z,80.26
2023-04-16T08:37:26.079Z,78.90
2023-04-16T08:39:52.847Z,78.99
2023-04-16T08:42:50.465Z,78.16
2023-04-16T08:45:17.495Z,77.98
2023-04-16T08:47:50.223Z,77.37
2023-04-16T08:50:22.040Z,76.20
2023-04-16T08:52:56.094Z,76.47
2023-04-16T08:55:31.727Z,75.80
2023-04-16T08:57:59.711Z,75.62
2023-04-16T09:00:27.924Z,75.34
2023-04-16T09:02:55.252Z,74.93
2023-04-16T09:05:25.119Z,73.38
2023-04-16T09:07:54.020Z,73.10
2023-04-16T09:10:21.525Z,72.69
2023-04-16T09:12:48.161Z,72.56
2023-04-16T09:15:14.913Z,72.36
2023-04-16T09:17:41.575Z,72.28
2023-04-16T09:20:10.410Z,73.01
2023-04-16T09:22:39.454Z,73.14
2023-04-16T09:25:07.340Z,73.04
2023-04-16T09:27:34.049Z,72.90
2023-04-16T09:30:00.771Z,73.11
2023-04-16T09:32:28.429Z,73.05
2023-04-16T09:35:00.318Z,73.31
2023-04-16T09:37:31.694Z,73.64
2023-04-16T09:40:00.389Z,73.13
2023-04-16T09:42:32.627Z,73.22
2023-04-16T09:45:01.372Z,72.82
2023-04-16T09:47:49.452Z,71.77
2023-04-16T09:50:19.001Z,72.23
2023-04-16T09:52:52.018Z,72.51
2023-04-16T09:55:23.295Z,72.61
2023-04-16T09:57:58.029Z,72.64
2023-04-16T10:00:24.905Z,72.46
2023-04-16T10:03:04.129Z,72.00
2023-04-16T10:05:31.105Z,72.15
2023-04-16T10:08:01.509Z,71.77
2023-04-16T10:10:29.300Z,71.81
2023-04-16T10:12:55.998Z,71.52
2023-04-16T10:15:22.811Z,71.23
2023-04-16T10:17:50.508Z,71.68
2023-04-16T10:20:17.764Z,71.47
2023-04-16T10:22:44.556Z,71.45
2023-04-16T10:25:11.477Z,70.48
2023-04-16T10:27:40.105Z,70.72
2023-04-16T10:30:08.267Z,70.41
2023-04-16T10:32:36.281Z,69.93
2023-04-16T10:35:06.653Z,69.54
2023-04-16T10:37:34.205Z,69.69
2023-04-16T10:40:01.247Z,68.10
2023-04-16T10:42:28.037Z,67.99
2023-04-16T10:44:59.155Z,68.55
2023-04-16T10:47:26.094Z,68.70
2023-04-16T10:49:52.768Z,69.11
2023-04-16T10:52:21.960Z,69.22
2023-04-16T10:54:49.901Z,69.56
2023-04-16T10:57:18.994Z,69.53
2023-04-16T10:59:48.036Z,69.27
2023-04-16T11:02:18.809Z,69.35
2023-04-16T11:04:48.066Z,69.24
2023-04-16T11:07:18.128Z,68.84
2023-04-16T11:10:03.601Z,68.50
2023-04-16T11:12:48.627Z,69.14
2023-04-16T11:15:18.720Z,69.16
2023-04-16T11:17:47.778Z,68.96
2023-04-16T11:20:20.736Z,68.81
2023-04-16T11:22:54.055Z,69.10
2023-04-16T11:25:23.539Z,68.36
2023-04-16T11:27:53.228Z,68.11
2023-04-16T11:30:33.152Z,68.26
2023-04-16T11:33:04.200Z,68.44
2023-04-16T11:35:30.937Z,68.28
2023-04-16T11:37:58.133Z,67.93
2023-04-16T11:40:28.782Z,67.47
2023-04-16T11:43:02.281Z,67.45
2023-04-16T11:45:29.230Z,66.94
2023-04-16T11:47:57.169Z,66.91
2023-04-16T11:50:28.129Z,66.98
2023-04-16T11:53:02.442Z,66.70
2023-04-16T11:55:29.183Z,66.19
2023-04-16T11:57:56.042Z,66.71
2023-04-16T12:00:24.621Z,65.74
2023-04-16T12:02:54.600Z,64.85
2023-04-16T12:05:40.827Z,65.67
2023-04-16T12:08:09.960Z,65.57
2023-04-16T12:10:54.289Z,65.64
2023-04-16T12:13:21.042Z,65.64
2023-04-16T12:15:52.773Z,65.09
2023-04-16T12:18:26.220Z,64.79
2023-04-16T12:20:53.104Z,64.11
2023-04-16T12:23:25.711Z,64.33
2023-04-16T12:25:52.558Z,63.60
2023-04-16T12:28:34.336Z,63.23
2023-04-16T12:31:02.150Z,63.57
2023-04-16T12:33:28.876Z,63.20
2023-04-16T12:35:55.748Z,63.43
2023-04-16T12:38:24.451Z,62.97
2023-04-16T12:40:55.800Z,63.42
2023-04-16T12:43:23.087Z,63.18
2023-04-16T12:45:54.036Z,62.98
2023-04-16T12:48:21.120Z,61.72
2023-04-16T12:50:47.853Z,62.29
2023-04-16T12:53:14.415Z,62.89
2023-04-16T12:55:41.117Z,62.94
2023-04-16T12:58:09.790Z,62.68
2023-04-16T13:00:37.792Z,63.45
2023-04-16T13:03:04.393Z,62.49
2023-04-16T13:05:30.993Z,61.48
2023-04-16T13:07:57.527Z,61.73
2023-04-16T13:10:24.361Z,61.23
2023-04-16T13:12:50.953Z,61.54
2023-04-16T13:15:17.631Z,60.75
2023-04-16T13:17:44.416Z,60.68
2023-04-16T13:20:11.325Z,60.54
2023-04-16T13:22:38.556Z,61.19
2023-04-16T13:25:06.010Z,60.54
2023-04-16T13:27:32.644Z,60.89
2023-04-16T13:29:59.196Z,61.17
2023-04-16T13:32:26.058Z,59.70
2023-04-16T13:34:52.618Z,60.66
2023-04-16T13:37:19.397Z,60.75
2023-04-16T13:39:46.790Z,61.06
2023-04-16T13:42:13.536Z,60.41
2023-04-16T13:44:40.473Z,60.20
2023-04-16T13:47:07.827Z,59.96
2023-04-16T13:49:35.914Z,60.26
2023-04-16T13:52:03.874Z,59.99
2023-04-16T13:54:30.653Z,60.22
2023-04-16T13:56:57.220Z,60.32
2023-04-16T13:59:23.787Z,59.47
2023-04-16T14:01:50.680Z,60.15
2023-04-16T14:04:18.208Z,60.16
2023-04-16T14:06:44.914Z,59.95
2023-04-16T14:09:11.775Z,60.20
2023-04-16T14:11:38.498Z,59.96
2023-04-16T14:14:06.752Z,59.27
2023-04-16T14:16:34.013Z,59.32
2023-04-16T14:19:00.911Z,59.63
2023-04-16T14:21:28.072Z,59.24
2023-04-16T14:23:54.847Z,58.67
2023-04-16T14:26:21.957Z,58.51
2023-04-16T14:28:51.021Z,58.45
2023-04-16T14:31:19.417Z,58.52
2023-04-16T14:33:46.596Z,58.58
2023-04-16T14:36:13.664Z,58.06
2023-04-16T14:38:45.188Z,57.54
2023-04-16T14:41:12.688Z,58.12
2023-04-16T14:43:41.079Z,57.70
2023-04-16T14:46:07.852Z,58.58
2023-04-16T14:48:35.764Z,58.40
2023-04-16T14:51:02.566Z,58.37
2023-04-16T14:53:29.118Z,58.70
2023-04-16T14:55:58.380Z,58.44
2023-04-16T14:58:25.639Z,58.16
2023-04-16T15:00:52.311Z,57.89
2023-04-16T15:03:19.379Z,58.33
2023-04-16T15:05:51.612Z,57.37
2023-04-16T15:08:18.239Z,57.60
2023-04-16T15:10:45.150Z,57.73
2023-04-16T15:13:11.713Z,58.21
2023-04-16T15:15:38.278Z,58.18
2023-04-16T15:18:06.056Z,57.93
2023-04-16T15:20:32.862Z,58.19
2023-04-16T15:22:59.578Z,57.90
2023-04-16T15:25:26.238Z,58.22
2023-04-16T15:27:53.094Z,58.46
2023-04-16T15:30:20.051Z,58.73
2023-04-16T15:32:47.060Z,58.59
2023-04-16T15:35:13.846Z,58.46
2023-04-16T15:37:41.275Z,58.61
2023-04-16T15:40:08.619Z,58.48
2023-04-16T15:42:35.679Z,58.59
2023-04-16T15:45:03.352Z,58.92
2023-04-16T15:47:30.640Z,58.71
2023-04-16T15:49:57.725Z,58.89
2023-04-16T15:52:24.936Z,58.98
2023-04-16T15:54:52.240Z,58.74
2023-04-16T15:57:19.021Z,58.99
2023-04-16T15:59:55.842Z,58.94
2023-04-16T16:02:33.722Z,59.36
2023-04-16T16:05:01.341Z,59.00
2023-04-16T16:07:28.811Z,58.86
2023-04-16T16:09:56.403Z,59.17
2023-04-16T16:12:24.540Z,59.50
2023-04-16T16:14:51.949Z,59.10
2023-04-16T16:17:20.421Z,59.34
2023-04-16T16:21:46.664Z,59.40
2023-04-16T16:24:15.978Z,59.44
2023-04-16T16:26:44.447Z,59.90
2023-04-16T16:29:12.777Z,60.03
2023-04-16T16:31:41.007Z,60.18
2023-04-16T16:34:14.736Z,60.48
2023-04-16T16:36:49.434Z,60.65
2023-04-16T16:39:17.581Z,60.73
2023-04-16T16:41:45.723Z,60.81
2023-04-16T16:44:13.627Z,61.02
2023-04-16T16:46:41.742Z,61.22
2023-04-16T16:49:10.180Z,61.16
2023-04-16T16:51:39.201Z,61.36
2023-04-16T16:54:07.947Z,61.37
2023-04-16T16:56:35.890Z,61.67
2023-04-16T16:59:04.075Z,61.68
2023-04-16T17:01:32.521Z,61.91
2023-04-16T17:04:00.651Z,61.98
2023-04-16T17:06:29.169Z,62.36
2023-04-16T17:08:57.131Z,62.49
2023-04-16T17:11:27.478Z,62.81
2023-04-16T17:13:55.366Z,62.93
2023-04-16T17:16:24.182Z,63.04
2023-04-16T17:18:52.514Z,62.99
2023-04-16T17:21:21.043Z,63.11
2023-04-16T17:23:48.994Z,63.32
2023-04-16T17:26:18.158Z,63.48
2023-04-16T17:28:51.179Z,63.72
2023-04-16T17:31:20.369Z,63.59
2023-04-16T17:33:51.254Z,63.75
2023-04-16T17:36:21.546Z,63.92
2023-04-16T17:38:51.164Z,64.12
2023-04-16T17:41:28.342Z,64.03
2023-04-16T17:43:56.770Z,64.27
2023-04-16T17:46:25.856Z,64.47
2023-04-16T17:48:55.034Z,64.63
2023-04-16T17:51:23.680Z,64.76
2023-04-16T17:53:52.296Z,64.89
2023-04-16T17:56:20.750Z,64.87
2023-04-16T17:58:49.404Z,65.16
2023-04-16T18:01:17.765Z,65.43
2023-04-16T18:03:46.601Z,65.51
2023-04-16T18:06:15.294Z,65.60
2023-04-16T18:08:43.918Z,65.54
2023-04-16T18:11:12.409Z,65.55
2023-04-16T18:13:41.570Z,65.83
2023-04-16T18:16:17.451Z,66.15
2023-04-16T18:18:46.808Z,66.10
2023-04-16T18:21:16.371Z,66.12
2023-04-16T18:23:45.276Z,66.21
2023-04-16T18:26:17.777Z,66.38
2023-04-16T18:28:47.097Z,66.58
2023-04-16T18:31:16.013Z,66.48
2023-04-16T18:33:56.544Z,66.72
2023-04-16T18:36:27.439Z,66.58
2023-04-16T18:39:02.190Z,66.94
2023-04-16T18:41:32.130Z,67.04
2023-04-16T18:44:01.183Z,66.91
2023-04-16T18:46:30.034Z,66.92
2023-04-16T18:49:02.690Z,66.80
2023-04-16T18:51:32.009Z,67.00
2023-04-16T18:54:00.690Z,67.29
2023-04-16T18:56:31.671Z,67.30
2023-04-16T18:59:00.243Z,67.46
2023-04-16T19:01:28.915Z,67.04
2023-04-16T19:03:57.715Z,67.20
2023-04-16T19:06:28.278Z,67.49
2023-04-16T19:08:58.066Z,67.65
2023-04-16T19:11:27.643Z,67.48
2023-04-16T19:13:56.484Z,67.49
2023-04-16T19:16:25.368Z,67.90
2023-04-16T19:18:54.628Z,67.46
2023-04-16T19:21:23.374Z,67.84
2023-04-16T19:23:52.495Z,67.90
2023-04-16T19:26:21.592Z,67.82
2023-04-16T19:28:50.238Z,67.90
2023-04-16T19:31:18.833Z,67.96
2023-04-16T19:33:47.525Z,68.12
2023-04-16T19:36:16.217Z,67.90
2023-04-16T19:38:44.787Z,68.19
2023-04-16T19:41:13.701Z,68.05
2023-04-16T19:43:43.199Z,68.08
2023-04-16T19:46:11.938Z,68.13
2023-04-16T19:48:40.380Z,68.15
2023-04-16T19:51:09.128Z,68.26
2023-04-16T19:53:37.881Z,68.41
2023-04-16T19:56:06.572Z,68.13
2023-04-16T19:58:35.331Z,68.62
2023-04-16T20:01:11.190Z,68.38
2023-04-16T20:03:44.081Z,68.48
2023-04-16T20:06:12.744Z,68.41
2023-04-16T20:08:41.412Z,68.64
2023-04-16T20:11:09.836Z,68.87
2023-04-16T20:13:38.672Z,68.76
2023-04-16T20:16:09.531Z,68.72
2023-04-16T20:18:41.567Z,68.76
2023-04-16T20:21:10.120Z,68.72
2023-04-16T20:23:38.776Z,68.83
2023-04-16T20:26:07.099Z,68.75
2023-04-16T20:28:34.975Z,68.95
2023-04-16T20:31:03.144Z,68.89
2023-04-16T20:33:31.058Z,68.97
2023-04-16T20:35:59.081Z,69.23
2023-04-16T20:38:29.658Z,69.12
2023-04-16T20:41:10.413Z,69.10
2023-04-16T20:43:40.709Z,69.17
2023-04-16T20:46:09.585Z,69.05
2023-04-16T20:48:39.093Z,69.19
2023-04-16T20:51:10.700Z,69.32
2023-04-16T20:53:38.708Z,69.17
2023-04-16T20:56:07.252Z,69.18
2023-04-16T20:58:35.464Z,69.42
2023-04-16T21:01:04.792Z,69.30
2023-04-16T21:03:32.980Z,69.21
2023-04-16T21:06:02.467Z,69.19
2023-04-16T21:08:30.460Z,69.42
2023-04-16T21:10:58.409Z,69.55
2023-04-16T21:13:26.457Z,69.57
2023-04-16T21:15:54.960Z,69.74
2023-04-16T21:18:22.996Z,69.76
2023-04-16T21:20:51.115Z,70.17
2023-04-16T21:23:19.347Z,70.25
2023-04-16T21:25:56.340Z,70.53
2023-04-16T21:28:24.375Z,70.82
2023-04-16T21:30:53.809Z,71.05
2023-04-16T21:33:22.069Z,72.01
2023-04-16T21:35:53.786Z,71.94
2023-04-16T21:38:22.113Z,71.69
2023-04-16T21:40:53.709Z,72.48
2023-04-16T21:43:24.803Z,72.44
2023-04-16T21:45:56.098Z,72.29
2023-04-16T21:48:24.020Z,72.28
2023-04-16T21:50:59.134Z,72.75
2023-04-16T21:53:32.041Z,72.81
2023-04-16T21:56:00.313Z,72.85
2023-04-16T21:58:28.221Z,73.23
2023-04-16T22:00:56.332Z,73.40
2023-04-16T22:03:27.592Z,73.36
2023-04-16T22:06:01.479Z,73.77
2023-04-16T22:08:30.448Z,74.07
2023-04-16T22:11:00.361Z,74.28
2023-04-16T22:13:32.288Z,74.59
2023-04-16T22:16:01.731Z,74.82
2023-04-16T22:18:33.742Z,74.98
2023-04-16T22:21:02.105Z,75.09
2023-04-16T22:23:30.169Z,74.99
2023-04-16T22:25:58.041Z,74.85
2023-04-16T22:28:26.064Z,75.41
2023-04-16T22:30:54.025Z,75.61
2023-04-16T22:33:21.926Z,75.53
2023-04-16T22:35:49.901Z,75.58
2023-04-16T22:38:17.891Z,75.75
2023-04-16T22:40:48.278Z,76.60
2023-04-16T22:43:17.725Z,76.50
2023-04-16T22:45:46.448Z,76.96
2023-04-16T22:48:14.481Z,77.09
2023-04-16T22:50:48.613Z,77.88
2023-04-16T22:53:16.588Z,77.94
2023-04-16T22:55:44.581Z,77.35
2023-04-16T22:58:12.473Z,77.83
2023-04-16T23:00:40.753Z,78.00
2023-04-16T23:03:08.976Z,77.98
2023-04-16T23:05:36.993Z,78.38
2023-04-16T23:08:05.191Z,78.30
2023-04-16T23:10:33.238Z,78.10
2023-04-16T23:13:01.604Z,78.41
2023-04-16T23:15:29.695Z,79.08
2023-04-16T23:17:58.174Z,78.82
2023-04-16T23:20:26.200Z,79.15
2023-04-16T23:22:54.237Z,79.37
2023-04-16T23:25:25.571Z,79.43
2023-04-16T23:27:53.440Z,79.21
2023-04-16T23:30:21.467Z,79.58
2023-04-16T23:32:49.448Z,80.01
2023-04-16T23:35:22.812Z,79.72
2023-04-16T23:37:50.916Z,80.32
2023-04-16T23:40:18.824Z,80.09
2023-04-16T23:42:46.726Z,80.69
2023-04-16T23:45:14.617Z,80.53
2023-04-16T23:47:42.554Z,80.78
2023-04-16T23:50:11.049Z,81.16
2023-04-16T23:52:39.100Z,81.29
2023-04-16T23:55:07.396Z,81.43
2023-04-16T23:57:35.394Z,81.64
